Data for 07/02/2013

Time Sea-Level Adjusted Pressure Absolute Pressure Temperature Relative Humidity Dew Point   
(mb) (inHg) (mb) (inHg) (C) (F) (%) (C) (F)
00:05 1024 30.24 854 25.22 21.3 70.4 48 10.2 50.3
00:10 1024 30.24 854 25.22 21.3 70.4 48 10 50
00:15 1024 30.24 854 25.22 21.3 70.4 48 10.1 50.2
00:20 1024 30.24 854 25.22 21.2 70.2 49 10.2 50.3
00:25 1024 30.24 854 25.22 21 69.9 50 10.4 50.7
00:30 1024 30.24 854 25.22 20.8 69.5 51 10.3 50.6
00:35 1024 30.24 854 25.22 20.8 69.5 50 10.2 50.3
00:40 1024 30.24 854 25.22 20.9 69.6 50 10.3 50.6
00:45 1024 30.24 854 25.22 21 69.7 49 10.1 50.2
00:50 1024 30.24 854 25.22 21 69.8 49 10 50.1
00:55 1024 30.24 854 25.22 21.1 70 49 10.2 50.3
01:00 1024 30.24 854 25.22 20.9 69.6 50 10.1 50.2
01:05 1024 30.24 854 25.22 20.8 69.4 49 9.9 49.7
01:10 1024 30.24 854 25.22 20.9 69.5 50 10.1 50.1
01:15 1024 30.24 854 25.22 20.7 69.2 50 10.1 50.2
01:20 1024 30.24 854 25.22 20.6 69 50 10 49.9
01:25 1024 30.24 854 25.22 20.6 69 50 10 50
01:30 1024 30.24 853 25.19 20.4 68.8 50 9.9 49.8
01:35 1024 30.24 854 25.22 20.4 68.7 50 9.8 49.7
01:40 1024 30.24 854 25.22 20.4 68.7 51 10 49.9
01:45 1024 30.24 854 25.22 20.2 68.4 51 9.9 49.9
01:50 1025 30.27 854 25.22 20.1 68.1 52 10 50.1
01:55 1025 30.27 854 25.22 19.7 67.5 55 10.4 50.8
02:00 1024 30.24 854 25.22 19.1 66.4 55 10 50
02:05 1024 30.24 854 25.22 19.1 66.3 56 10.1 50.3
02:10 1024 30.24 854 25.22 19 66.2 56 10.1 50.2
02:15 1025 30.27 854 25.22 18.9 66 56 10.1 50.2
02:20 1024 30.24 854 25.22 18.7 65.7 57 10.1 50.2
02:25 1024 30.24 854 25.22 18.5 65.4 57 10 50
02:30 1024 30.24 854 25.22 18.5 65.4 58 10.2 50.3
02:35 1024 30.24 854 25.22 18.4 65.2 58 10.1 50.1
02:40 1024 30.24 854 25.22 18.3 65 59 10.4 50.7
02:45 1024 30.24 854 25.22 18.1 64.5 61 10.4 50.8
02:50 1024 30.24 854 25.22 17.9 64.1 62 10.5 50.8
02:55 1024 30.24 854 25.22 17.8 64.1 61 10.3 50.6
03:00 1024 30.24 854 25.22 17.8 64 62 10.4 50.7
03:05 1024 30.24 854 25.22 17.7 63.8 62 10.3 50.6
03:10 1024 30.24 854 25.22 17.5 63.6 62 10.3 50.5
03:15 1024 30.24 854 25.22 17.6 63.6 64 10.9 51.5
03:20 1024 30.24 854 25.22 17.5 63.4 63 10.5 50.9
03:25 1024 30.24 854 25.22 17.2 62.9 63 10.2 50.4
03:30 1024 30.24 854 25.22 17.5 63.4 60 9.8 49.6
03:35 1025 30.27 854 25.22 18 64.3 59 10 50
03:40 1025 30.27 854 25.22 18.2 64.7 60 10.2 50.4
03:45 1025 30.27 854 25.22 18 64.5 60 10.2 50.4
03:50 1025 30.27 854 25.22 17.7 63.9 61 10.2 50.4
03:55 1025 30.27 854 25.22 17.5 63.5 62 10.4 50.7
04:00 1025 30.27 854 25.22 17.1 62.8 65 10.6 51.1
04:05 1025 30.27 854 25.22 16.8 62.3 64 10.1 50.2
04:10 1025 30.27 854 25.22 16.7 62.1 64 10 50
04:15 1025 30.27 854 25.22 16.8 62.3 64 10 50.1
04:20 1025 30.27 854 25.22 17 62.7 63 10 50
04:25 1025 30.27 854 25.22 17.3 63.1 62 10 50
04:30 1025 30.27 854 25.22 17.5 63.5 61 10 49.9
04:35 1025 30.27 854 25.22 17.4 63.3 62 10.1 50.2
04:40 1025 30.27 854 25.22 17 62.5 64 10.2 50.4
04:45 1025 30.27 854 25.22 16.7 62.1 64 10 49.9
04:50 1025 30.27 854 25.22 16.8 62.2 65 10.1 50.2
04:55 1025 30.27 854 25.22 16.7 62 65 10 50.1
05:00 1025 30.27 854 25.22 16.9 62.3 61 9.3 48.7
05:05 1025 30.27 854 25.22 17.2 62.9 60 9.5 49.1
05:10 1025 30.27 854 25.22 17.5 63.4 59 9.5 49.1
05:15 1025 30.27 854 25.22 17.5 63.4 62 10.1 50.3
05:20 1025 30.27 854 25.22 17.4 63.3 62 10.2 50.4
05:25 1025 30.27 854 25.22 17.4 63.4 62 10.2 50.4
05:30 1025 30.27 854 25.22 17.4 63.4 62 10.3 50.5
05:35 1025 30.27 854 25.22 17.5 63.5 63 10.4 50.7
05:40 1025 30.27 854 25.22 17.3 63.1 64 10.4 50.7
05:45 1025 30.27 854 25.22 17.2 62.9 64 10.4 50.7
05:50 1025 30.27 854 25.22 17.2 63 64 10.4 50.7
05:55 1025 30.27 854 25.22 17.4 63.2 64 10.6 51.1
06:00 1025 30.27 854 25.22 17.6 63.6 63 10.6 51.1
06:05 1025 30.27 854 25.22 17.8 64.1 63 10.8 51.5
06:10 1025 30.27 854 25.22 18 64.4 62 10.7 51.3
06:15 1025 30.27 854 25.22 18.1 64.6 63 11 51.8
06:20 1025 30.27 854 25.22 18.3 64.9 61 10.6 51.1
06:25 1025 30.27 854 25.22 18.6 65.5 62 11.2 52.2
06:30 1025 30.27 854 25.22 18.8 65.9 61 11.2 52.2
06:35 1025 30.27 854 25.22 18.9 66 61 11.3 52.4
06:40 1025 30.27 854 25.22 19 66.3 62 11.6 52.8
06:45 1025 30.27 854 25.22 19.1 66.3 61 11.4 52.6
06:50 1025 30.27 854 25.22 19.3 66.7 61 11.7 53.1
06:55 1025 30.27 854 25.22 19.6 67.3 59 11.6 52.8
07:00 1025 30.27 854 25.22 20 67.9 60 11.9 53.5
07:05 1025 30.27 854 25.22 20.3 68.5 57 11.7 53
07:10 1025 30.27 854 25.22 20.3 68.5 58 12 53.5
07:15 1024 30.24 854 25.22 20.3 68.5 59 12.1 53.8
07:20 1024 30.24 854 25.22 20.7 69.3 59 12.6 54.7
07:25 1024 30.24 854 25.22 21.2 70.1 55 12 53.6
07:30 1024 30.24 854 25.22 21.4 70.4 54 11.8 53.2
07:35 1024 30.24 854 25.22 21.6 70.9 54 12 53.7
07:40 1024 30.24 854 25.22 21.8 71.2 53 11.9 53.3
07:45 1024 30.24 854 25.22 22.3 72.1 51 11.7 53.1
07:50 1024 30.24 854 25.22 22.7 72.9 50 12 53.5
07:55 1024 30.24 854 25.22 23.3 73.9 48 12 53.5
08:00 1024 30.24 854 25.22 24.2 75.5 45 11.6 53
08:05 1024 30.24 854 25.22 24.6 76.3 46 12.3 54.1
08:10 1024 30.24 854 25.22 24.7 76.4 44 11.9 53.4
08:15 1024 30.24 854 25.22 24.6 76.3 45 12.2 53.9
08:20 1024 30.24 854 25.22 24.7 76.4 47 12.7 54.8
08:25 1024 30.24 854 25.22 24.9 76.8 46 12.5 54.6
08:30 1024 30.24 854 25.22 25 77 44 12.2 54
08:35 1024 30.24 854 25.22 25.5 77.9 45 12.9 55.2
08:40 1024 30.24 854 25.22 25.5 77.9 44 12.6 54.7
08:45 1025 30.27 854 25.22 25.3 77.5 46 13 55.5
08:50 1025 30.27 854 25.22 25.1 77.1 46 12.9 55.3
08:55 1024 30.24 854 25.22 24.9 76.9 49 13.7 56.6
09:00 1024 30.24 854 25.22 25.1 77.2 48 13.6 56.5
09:05 1024 30.24 854 25.22 25.2 77.4 49 13.8 56.9
09:10 1024 30.24 854 25.22 24.8 76.6 49 13.5 56.3
09:15 1024 30.24 854 25.22 25.5 78 45 12.8 55.1
09:20 1024 30.24 854 25.22 26.1 78.9 44 13 55.4
09:25 1025 30.27 854 25.22 26.8 80.2 39 12.1 53.8
09:30 1024 30.24 854 25.22 26.8 80.2 39 11.8 53.3
09:35 1024 30.24 854 25.22 26 78.7 41 11.7 53.1
09:40 1024 30.24 854 25.22 26.7 80 37 11 51.8
09:45 1024 30.24 854 25.22 27.5 81.5 37 11.6 52.9
09:50 1024 30.24 854 25.22 27.9 82.1 36 11.8 53.2
09:55 1024 30.24 853 25.19 28.2 82.7 36 12.1 53.7
10:00 1024 30.24 853 25.19 27.6 81.6 40 12.9 55.3
10:05 1024 30.24 853 25.19 27 80.5 42 13.1 55.6
10:10 1024 30.24 853 25.19 27.1 80.8 40 12.5 54.5
10:15 1024 30.24 853 25.19 26.9 80.5 41 12.6 54.7
10:20 1024 30.24 853 25.19 27.2 81 40 12.5 54.5
10:25 1024 30.24 853 25.19 27.3 81.2 39 12.2 54
10:30 1024 30.24 853 25.19 27.8 82.1 38 12.3 54.2
10:35 1024 30.24 853 25.19 27.6 81.6 40 12.9 55.2
10:40 1024 30.24 853 25.19 28.1 82.6 36 12.1 53.7
10:45 1024 30.24 853 25.19 29.1 84.4 34 11.8 53.3
10:50 1024 30.24 853 25.19 28.3 82.9 42 14.2 57.6
10:55 1024 30.24 853 25.19 28.5 83.4 35 12 53.6
11:00 1024 30.24 853 25.19 29.4 84.9 34 12 53.7
11:05 1024 30.24 853 25.19 29.8 85.6 34 12.4 54.3
11:10 1024 30.24 853 25.19 29.7 85.5 33 12 53.7
11:15 1024 30.24 853 25.19 30 85.9 34 12.7 54.8
11:20 1024 30.24 853 25.19 30 85.9 33 12.1 53.9
11:25 1024 30.24 853 25.19 30.4 86.8 33 12.5 54.5
11:30 1024 30.24 853 25.19 30.8 87.4 32 12.5 54.5
11:35 1023 30.21 853 25.19 30.3 86.6 32 12.1 53.8
11:40 1023 30.21 853 25.19 30.5 87 31 11.6 52.9
11:45 1023 30.21 853 25.19 31.3 88.3 30 12.1 53.7
11:50 1023 30.21 853 25.19 31 87.8 29 11.2 52.2
11:55 1023 30.21 853 25.19 31 87.9 28 10.5 51
12:00 1023 30.21 853 25.19 30.4 86.6 27 9.9 49.8
12:05 1023 30.21 853 25.19 30.6 87.1 26 9.4 48.9
12:10 1023 30.21 853 25.19 31.1 88.1 25 9.3 48.8
12:15 1023 30.21 852 25.16 31 87.8 25 8.8 47.8
12:20 1023 30.21 852 25.16 31.9 89.3 23 8.8 47.9
12:25 1023 30.21 852 25.16 31.4 88.5 23 8.3 47
12:30 1023 30.21 852 25.16 30.6 87 25 8.8 47.9
12:35 1023 30.21 852 25.16 31.6 88.9 24 9.2 48.5
12:40 1023 30.21 852 25.16 31.6 88.9 23 8.6 47.5
12:45 1023 30.21 852 25.16 30.5 86.9 25 8.6 47.4
12:50 1023 30.21 852 25.16 30.2 86.4 26 8.9 48
12:55 1023 30.21 852 25.16 30.7 87.2 25 8.8 47.9
13:00 1023 30.21 852 25.16 31.1 87.9 25 8.8 47.8
13:05 1023 30.21 852 25.16 31.5 88.7 24 9 48.2
13:10 1023 30.21 852 25.16 31 87.8 25 9.3 48.8
13:15 1023 30.21 852 25.16 30.3 86.5 26 9.2 48.6
13:20 1023 30.21 852 25.16 31.2 88.2 26 9.7 49.4
13:25 1023 30.21 852 25.16 31.2 88.1 25 9.3 48.7
13:30 1023 30.21 852 25.16 31.3 88.3 24 8.9 48.1
13:35 1023 30.21 852 25.16 30.8 87.5 24 8.3 47
13:40 1023 30.21 852 25.16 31.3 88.4 23 7.9 46.3
13:45 1023 30.21 852 25.16 31.2 88.1 25 8.9 48.1
13:50 1023 30.21 852 25.16 31.9 89.4 25 9.6 49.3
13:55 1023 30.21 852 25.16 31.4 88.6 26 9.7 49.5
14:00 1023 30.21 852 25.16 31.9 89.3 25 9.8 49.6
14:05 1023 30.21 852 25.16 32 89.6 25 10.1 50.2
14:10 1023 30.21 852 25.16 31.8 89.2 27 10.8 51.4
14:15 1023 30.21 852 25.16 31.6 88.9 28 11 51.8
14:20 1023 30.21 852 25.16 31.8 89.3 25 10 50
14:25 1023 30.21 852 25.16 31.3 88.4 28 10.8 51.4
14:30 1023 30.21 852 25.16 31 87.8 28 10.8 51.4
14:35 1022 30.18 852 25.16 31.2 88.1 29 11.5 52.8
14:40 1022 30.18 852 25.16 31.3 88.3 27 10.3 50.6
14:45 1022 30.18 852 25.16 31.5 88.7 26 9.9 49.8
14:50 1022 30.18 852 25.16 31.3 88.4 25 9.1 48.3
14:55 1022 30.18 851 25.13 31.6 89 24 9.2 48.6
15:00 1022 30.18 851 25.13 31.5 88.8 25 9.5 49.1
15:05 1022 30.18 851 25.13 31.3 88.3 24 8.9 48
15:10 1022 30.18 851 25.13 31.4 88.6 24 8.6 47.5
15:15 1022 30.18 851 25.13 32 89.5 23 8.9 48
15:20 1022 30.18 851 25.13 32.4 90.3 22 8.2 46.8
15:25 1022 30.18 851 25.13 32.4 90.4 23 9.2 48.6
15:30 1022 30.18 851 25.13 32 89.7 23 8.6 47.5
15:35 1022 30.18 851 25.13 32.2 89.9 25 9.9 49.8
15:40 1022 30.18 851 25.13 32 89.7 23 8.5 47.3
15:45 1022 30.18 851 25.13 32.4 90.3 21 7.9 46.3
15:50 1022 30.18 851 25.13 33.1 91.6 22 8.7 47.7
15:55 1022 30.18 851 25.13 33.2 91.8 22 8.7 47.7
16:00 1022 30.18 851 25.13 33.4 92.2 20 7.7 45.9
16:05 1022 30.18 851 25.13 34.2 93.5 21 9.1 48.4
16:10 1021 30.15 851 25.13 33.4 92.1 23 10.1 50.2
16:15 1021 30.15 851 25.13 32.1 89.7 23 9 48.2
16:20 1021 30.15 851 25.13 31.9 89.3 24 8.9 48
16:25 1021 30.15 851 25.13 31.9 89.5 24 9.1 48.3
16:30 1021 30.15 851 25.13 31.9 89.3 22 8.1 46.7
16:35 1021 30.15 851 25.13 32 89.5 22 8.1 46.5
16:40 1021 30.15 851 25.13 31.8 89.2 24 9.1 48.5
16:45 1021 30.15 850 25.1 31.5 88.7 24 9 48.2
16:50 1021 30.15 850 25.1 31.6 88.8 22 7.8 46
16:55 1021 30.15 850 25.1 31.8 89.2 23 8.4 47.2
17:00 1021 30.15 850 25.1 32 89.6 21 7.3 45.1
17:05 1021 30.15 850 25.1 32.1 89.7 21 7.3 45.1
17:10 1021 30.15 850 25.1 31.6 88.8 22 7.7 45.9
17:15 1021 30.15 850 25.1 31.4 88.5 23 8.2 46.7
17:20 1021 30.15 850 25.1 31.2 88.1 25 9.2 48.6
17:25 1021 30.15 850 25.1 30.9 87.6 28 10.8 51.4
17:30 1021 30.15 850 25.1 30.8 87.4 24 8 46.4
17:35 1021 30.15 850 25.1 30.9 87.7 23 7.9 46.3
17:40 1021 30.15 850 25.1 31.1 88.1 23 8 46.5
17:45 1021 30.15 850 25.1 31.2 88.2 24 8.6 47.5
17:50 1021 30.15 850 25.1 31.1 88 21 6.7 44.1
17:55 1021 30.15 850 25.1 31.1 88 22 7.3 45.2
18:00 1021 30.15 850 25.1 31 87.8 24 8.4 47.2
18:05 1021 30.15 850 25.1 31 87.8 23 8 46.4
18:10 1021 30.15 850 25.1 31 87.7 21 6.3 43.4
18:15 1021 30.15 850 25.1 30.8 87.5 22 7.2 45
18:20 1021 30.15 850 25.1 30.7 87.3 25 9.1 48.3
18:25 1021 30.15 850 25.1 30.8 87.4 26 9.3 48.7
18:30 1021 30.15 850 25.1 30.8 87.4 29 10.8 51.4
18:35 1021 30.15 850 25.1 30.6 87 29 10.7 51.3
18:40 1021 30.15 850 25.1 30.3 86.6 33 12.6 54.7
18:45 1021 30.15 850 25.1 30 86.1 40 15.1 59.1
18:50 1021 30.15 850 25.1 29.8 85.6 38 14.4 57.8
18:55 1021 30.15 850 25.1 29.6 85.3 38 14.2 57.6
19:00 1021 30.15 850 25.1 29.4 84.9 40 14.5 58.1
19:05 1021 30.15 850 25.1 29.1 84.5 42 15.3 59.6
19:10 1021 30.15 850 25.1 28.7 83.7 47 16.6 61.9
19:15 1020 30.12 850 25.1 28.3 83 46 15.9 60.7
19:20 1020 30.12 849 25.07 28.2 82.8 46 15.7 60.2
19:25 1020 30.12 849 25.07 28.2 82.7 46 15.6 60.1
19:30 1020 30.12 849 25.07 27.9 82.1 46 15.4 59.8
19:35 1020 30.12 849 25.07 27.4 81.3 45 14.6 58.4
19:40 1020 30.12 849 25.07 27.1 80.8 47 14.9 58.9
19:45 1020 30.12 849 25.07 27.2 80.9 47 15 59
19:50 1020 30.12 849 25.07 27.3 81.1 42 13.6 56.4
19:55 1020 30.12 849 25.07 27.3 81.1 43 14 57.2
20:00 1020 30.12 849 25.07 27.3 81.1 46 14.8 58.6
20:05 1020 30.12 849 25.07 27 80.7 45 14.3 57.8
20:10 1020 30.12 849 25.07 26.7 80 47 14.5 58.1
20:15 1020 30.12 849 25.07 26.3 79.3 47 14.3 57.7
20:20 1020 30.12 849 25.07 26.3 79.3 41 12.2 54
20:25 1020 30.12 849 25.07 26.4 79.6 44 13.5 56.3
20:30 1020 30.12 850 25.1 26.2 79.1 44 13.1 55.5
20:35 1020 30.12 850 25.1 25.7 78.2 45 13.1 55.6
20:40 1020 30.12 850 25.1 25.4 77.7 46 13.3 56
20:45 1020 30.12 850 25.1 25.1 77.1 48 13.4 56
20:50 1020 30.12 849 25.07 25.2 77.3 44 12.4 54.2
20:55 1020 30.12 849 25.07 25.1 77.3 47 13.2 55.7
21:00 1020 30.12 849 25.07 24.7 76.4 52 14.4 57.9
21:05 1020 30.12 849 25.07 24.2 75.6 50 13.4 56.1
21:10 1020 30.12 849 25.07 24.3 75.7 48 12.6 54.7
21:15 1020 30.12 849 25.07 24.7 76.5 45 12.3 54.2
21:20 1020 30.12 849 25.07 24.3 75.7 48 12.7 54.9
21:25 1020 30.12 849 25.07 23.9 75 45 11.5 52.7
21:30 1020 30.12 849 25.07 23.2 73.8 45 10.9 51.6
21:35 1020 30.12 849 25.07 22.8 73.1 42 9.6 49.2
21:40 1020 30.12 849 25.07 23.4 74.1 38 8.5 47.3
21:45 1020 30.12 850 25.1 24 75.1 39 9.4 48.8
21:50 1020 30.12 850 25.1 23.9 74.9 39 9.3 48.8
21:55 1020 30.12 850 25.1 23.6 74.4 40 9.3 48.7
22:00 1020 30.12 850 25.1 23.1 73.6 43 9.9 49.8
22:05 1020 30.12 850 25.1 22.7 72.9 44 9.9 49.9
22:10 1020 30.12 850 25.1 22.5 72.5 45 10.1 50.2
22:15 1020 30.12 850 25.1 22.1 71.9 50 11.4 52.5
22:20 1020 30.12 850 25.1 21.7 71 48 10.3 50.6
22:25 1020 30.12 850 25.1 21.6 70.9 45 9.3 48.7
22:30 1020 30.12 849 25.07 21.7 71.1 44 9.2 48.5
22:35 1020 30.12 849 25.07 21.8 71.2 43 8.9 48
22:40 1020 30.12 849 25.07 21.7 71 45 9.2 48.6
22:45 1020 30.12 849 25.07 21.4 70.5 45 9.2 48.6
22:50 1020 30.12 849 25.07 21.4 70.6 45 9 48.2
22:55 1020 30.12 849 25.07 21.6 70.9 44 9.1 48.4
23:00 1020 30.12 849 25.07 21.8 71.2 43 8.8 47.8
23:05 1020 30.12 849 25.07 21.9 71.4 43 8.8 47.8
23:10 1020 30.12 849 25.07 21.9 71.3 43 8.8 47.9
23:15 1020 30.12 849 25.07 21.6 70.8 44 9 48.2
23:20 1020 30.12 849 25.07 21.6 70.9 43 8.6 47.4
23:25 1020 30.12 849 25.07 21.6 70.9 43 8.5 47.3
23:30 1020 30.12 849 25.07 21.6 70.9 42 8.2 46.8
23:35 1020 30.12 849 25.07 21.5 70.8 44 8.9 48
23:40 1020 30.12 849 25.07 21.4 70.5 42 8.2 46.7
23:45 1020 30.12 849 25.07 21.6 70.9 41 8 46.3
23:50 1020 30.12 850 25.1 21.8 71.3 43 8.8 47.8
23:55 1020 30.12 850 25.1 21.5 70.6 45 9.2 48.5
24:00 1020 30.12 849 25.07 21.4 70.5 42 8.1 46.6